createdAt,value
2019-02-27T00:00:47.126Z,42.40
2019-02-27T00:01:49.629Z,40.70
2019-02-27T00:02:47.108Z,42.50
2019-02-27T00:03:47.028Z,43.30
2019-02-27T00:04:47.049Z,44.70
2019-02-27T00:05:47.012Z,48.10
2019-02-27T00:06:47.900Z,44.70
2019-02-27T00:07:46.951Z,47.90
2019-02-27T00:08:47.055Z,42.80
2019-02-27T00:09:46.958Z,52.50
2019-02-27T00:10:46.954Z,42.40
2019-02-27T00:11:46.936Z,46.30
2019-02-27T00:12:46.976Z,44.90
2019-02-27T00:13:46.886Z,47.00
2019-02-27T00:14:47.017Z,49.50
2019-02-27T00:15:46.881Z,46.70
2019-02-27T00:16:46.897Z,44.60
2019-02-27T00:17:51.073Z,45.30
2019-02-27T00:18:47.964Z,47.40
2019-02-27T00:19:46.824Z,47.50
2019-02-27T00:20:46.958Z,43.10
2019-02-27T00:21:46.807Z,45.20
2019-02-27T00:22:47.910Z,42.60
2019-02-27T00:23:46.785Z,44.80
2019-02-27T00:24:46.845Z,45.40
2019-02-27T00:25:46.789Z,47.90
2019-02-27T00:26:46.860Z,44.80
2019-02-27T00:27:49.256Z,45.40
2019-02-27T00:28:46.771Z,46.00
2019-02-27T00:29:46.730Z,46.30
2019-02-27T00:30:46.825Z,45.70
2019-02-27T00:31:46.729Z,45.10
2019-02-27T00:32:50.965Z,42.00
2019-02-27T00:33:46.673Z,47.30
2019-02-27T00:34:46.709Z,46.70
2019-02-27T00:35:46.661Z,45.40
2019-02-27T00:36:46.760Z,44.00
2019-02-27T00:37:46.631Z,42.20
2019-02-27T00:38:46.743Z,45.70
2019-02-27T00:39:46.620Z,42.30
2019-02-27T00:40:46.649Z,42.60
2019-02-27T00:41:46.691Z,44.60
2019-02-27T00:42:46.670Z,44.70
2019-02-27T00:43:46.576Z,47.60
2019-02-27T00:44:46.681Z,47.10
2019-02-27T00:45:46.576Z,52.00
2019-02-27T00:46:47.071Z,43.70
2019-02-27T00:47:46.535Z,47.30
2019-02-27T00:48:46.602Z,47.60
2019-02-27T00:49:46.514Z,49.80
2019-02-27T00:50:46.613Z,45.60
2019-02-27T00:51:46.517Z,45.60
2019-02-27T00:52:50.861Z,49.20
2019-02-27T00:53:47.468Z,43.80
2019-02-27T00:54:46.545Z,47.30
2019-02-27T00:55:46.445Z,43.20
2019-02-27T00:56:46.554Z,49.50
2019-02-27T00:57:46.454Z,50.70
2019-02-27T00:58:46.470Z,53.20
2019-02-27T00:59:46.407Z,45.60
2019-02-27T01:00:46.487Z,49.70
2019-02-27T01:01:47.546Z,48.80
2019-02-27T01:02:46.431Z,52.20
2019-02-27T01:03:46.356Z,45.50
2019-02-27T01:04:46.413Z,49.60
2019-02-27T01:05:46.338Z,50.60
2019-02-27T01:06:47.602Z,49.40
2019-02-27T01:07:46.346Z,48.80
2019-02-27T01:08:46.330Z,51.30
2019-02-27T01:09:46.304Z,46.10
2019-02-27T01:10:46.344Z,49.30
2019-02-27T01:11:46.273Z,50.50
2019-02-27T01:12:46.388Z,47.40
2019-02-27T01:13:46.247Z,48.30
2019-02-27T01:14:46.273Z,49.70
2019-02-27T01:15:46.230Z,46.60
2019-02-27T01:16:47.725Z,47.40
2019-02-27T01:17:46.239Z,51.90
2019-02-27T01:18:46.311Z,46.40
2019-02-27T01:19:46.186Z,51.90
2019-02-27T01:20:46.641Z,51.70
2019-02-27T01:21:46.168Z,49.00
2019-02-27T01:22:46.364Z,48.00
2019-02-27T01:23:46.180Z,47.40
2019-02-27T01:24:49.939Z,52.50
2019-02-27T01:25:46.132Z,49.70
2019-02-27T01:26:46.150Z,53.10
2019-02-27T01:27:46.127Z,51.20
2019-02-27T01:28:46.196Z,50.30
2019-02-27T01:29:46.094Z,52.30
2019-02-27T01:30:46.182Z,50.90
2019-02-27T01:31:46.090Z,48.00
2019-02-27T01:32:46.092Z,44.80
2019-02-27T01:33:46.063Z,49.50
2019-02-27T01:34:46.102Z,50.10
2019-02-27T01:35:46.017Z,51.80
2019-02-27T01:36:46.121Z,47.90
2019-02-27T01:37:45.999Z,47.20
2019-02-27T01:38:46.071Z,44.40
2019-02-27T01:39:45.989Z,43.60
2019-02-27T01:40:46.040Z,47.50
2019-02-27T01:41:45.950Z,44.90
2019-02-27T01:42:46.061Z,46.00
2019-02-27T01:43:45.965Z,47.40
2019-02-27T01:44:46.666Z,47.80
2019-02-27T01:45:45.919Z,49.20
2019-02-27T01:46:46.003Z,46.40
2019-02-27T01:47:45.886Z,50.10
2019-02-27T01:48:45.994Z,48.20
2019-02-27T01:49:48.944Z,49.50
2019-02-27T01:50:45.908Z,45.30
2019-02-27T01:51:45.851Z,48.00
2019-02-27T01:52:45.922Z,53.50
2019-02-27T01:53:45.820Z,50.20
2019-02-27T01:54:48.730Z,49.90
2019-02-27T01:55:45.821Z,49.70
2019-02-27T01:56:45.952Z,50.40
2019-02-27T01:57:45.782Z,55.10
2019-02-27T01:58:46.001Z,51.00
2019-02-27T01:59:50.034Z,50.20
2019-02-27T02:00:45.876Z,48.80
2019-02-27T02:01:45.743Z,49.90
2019-02-27T02:02:45.793Z,53.20
2019-02-27T02:03:47.454Z,50.20
2019-02-27T02:04:45.837Z,52.60
2019-02-27T02:05:45.704Z,52.70
2019-02-27T02:06:45.719Z,53.00
2019-02-27T02:07:45.697Z,54.90
2019-02-27T02:08:47.961Z,57.60
2019-02-27T02:09:45.713Z,54.30
2019-02-27T02:10:45.739Z,59.70
2019-02-27T02:11:45.631Z,56.00
2019-02-27T02:12:45.654Z,58.60
2019-02-27T02:13:48.068Z,53.00
2019-02-27T02:14:45.692Z,60.30
2019-02-27T02:15:45.590Z,59.10
2019-02-27T02:16:45.690Z,55.20
2019-02-27T02:17:45.570Z,58.00
2019-02-27T02:18:45.752Z,55.70
2019-02-27T02:19:45.549Z,59.40
2019-02-27T02:20:45.643Z,57.80
2019-02-27T02:21:45.523Z,57.60
2019-02-27T02:22:45.620Z,57.10
2019-02-27T02:23:47.814Z,55.60
2019-02-27T02:24:45.537Z,56.10
2019-02-27T02:25:45.536Z,53.20
2019-02-27T02:26:45.545Z,53.10
2019-02-27T02:27:45.461Z,56.20
2019-02-27T02:28:48.080Z,59.30
2019-02-27T02:29:45.439Z,53.70
2019-02-27T02:30:45.517Z,54.70
2019-02-27T02:31:45.415Z,55.90
2019-02-27T02:32:51.734Z,54.60
2019-02-27T02:33:46.398Z,55.30
2019-02-27T02:34:45.499Z,53.30
2019-02-27T02:35:49.570Z,54.30
2019-02-27T02:36:46.497Z,54.30
2019-02-27T02:37:45.365Z,55.00
2019-02-27T02:38:45.419Z,55.30
2019-02-27T02:39:45.329Z,55.80
2019-02-27T02:40:45.452Z,57.70
2019-02-27T02:41:48.010Z,54.60
2019-02-27T02:42:45.344Z,54.70
2019-02-27T02:43:45.295Z,56.70
2019-02-27T02:44:45.363Z,56.00
2019-02-27T02:45:45.266Z,53.60
2019-02-27T02:46:46.387Z,54.10
2019-02-27T02:47:45.251Z,60.10
2019-02-27T02:48:45.283Z,58.70
2019-02-27T02:49:45.226Z,57.00
2019-02-27T02:50:45.299Z,52.80
2019-02-27T02:51:45.232Z,57.50
2019-02-27T02:52:45.314Z,53.10
2019-02-27T02:53:45.213Z,54.80
2019-02-27T02:54:45.228Z,53.50
2019-02-27T02:55:49.008Z,57.10
2019-02-27T02:56:45.268Z,56.20
2019-02-27T02:57:45.171Z,55.30
2019-02-27T02:58:48.391Z,59.90
2019-02-27T02:59:45.117Z,55.50
2019-02-27T03:00:45.167Z,55.50
2019-02-27T03:01:45.697Z,58.90
2019-02-27T03:02:45.207Z,56.20
2019-02-27T03:03:45.079Z,55.60
2019-02-27T03:04:48.235Z,50.80
2019-02-27T03:05:45.052Z,53.10
2019-02-27T03:06:45.107Z,49.20
2019-02-27T03:07:45.691Z,56.00
2019-02-27T03:08:45.121Z,56.00
2019-02-27T03:09:45.010Z,56.40
2019-02-27T03:10:45.034Z,59.80
2019-02-27T03:11:44.997Z,51.50
2019-02-27T03:12:45.071Z,56.40
2019-02-27T03:13:45.004Z,55.50
2019-02-27T03:14:45.056Z,52.30
2019-02-27T03:15:44.951Z,59.50
2019-02-27T03:16:44.985Z,58.50
2019-02-27T03:17:44.954Z,57.90
2019-02-27T03:18:44.986Z,53.20
2019-02-27T03:19:44.905Z,56.70
2019-02-27T03:20:45.023Z,55.70
2019-02-27T03:21:44.882Z,52.40
2019-02-27T03:22:44.941Z,57.90
2019-02-27T03:23:51.021Z,61.50
2019-02-27T03:24:45.948Z,58.60
2019-02-27T03:25:44.847Z,56.00
2019-02-27T03:26:44.935Z,57.90
2019-02-27T03:27:44.843Z,54.90
2019-02-27T03:28:44.886Z,58.80
2019-02-27T03:29:44.793Z,62.60
2019-02-27T03:30:44.872Z,59.40
2019-02-27T03:31:44.769Z,59.20
2019-02-27T03:32:44.878Z,58.00
2019-02-27T03:33:44.779Z,58.90
2019-02-27T03:34:50.323Z,55.80
2019-02-27T03:35:45.729Z,56.60
2019-02-27T03:36:44.809Z,57.70
2019-02-27T03:37:48.097Z,54.80
2019-02-27T03:38:44.959Z,60.80
2019-02-27T03:39:44.685Z,61.20
2019-02-27T03:41:45.801Z,59.10
2019-02-27T03:42:44.745Z,60.50
2019-02-27T03:43:46.091Z,56.90
2019-02-27T03:44:44.789Z,54.70
2019-02-27T03:45:44.622Z,59.30
2019-02-27T03:46:44.672Z,57.40
2019-02-27T03:47:44.608Z,59.10
2019-02-27T03:48:44.726Z,57.80
2019-02-27T03:49:44.578Z,62.50
2019-02-27T03:50:49.469Z,62.70
2019-02-27T03:51:45.561Z,63.50
2019-02-27T03:52:44.606Z,61.60
2019-02-27T03:53:46.446Z,56.50
2019-02-27T03:54:44.650Z,65.30
2019-02-27T03:55:44.519Z,57.60
2019-02-27T03:56:44.798Z,64.60
2019-02-27T03:57:44.495Z,57.00
2019-02-27T03:58:44.544Z,59.20
2019-02-27T03:59:44.487Z,59.00
2019-02-27T04:00:44.562Z,65.40
2019-02-27T04:01:44.446Z,63.80
2019-02-27T04:02:44.475Z,55.00
2019-02-27T04:03:44.419Z,57.10
2019-02-27T04:04:44.515Z,56.70
2019-02-27T04:05:46.268Z,60.10
2019-02-27T04:06:44.497Z,59.10
2019-02-27T04:07:44.390Z,55.80
2019-02-27T04:08:45.063Z,60.00
2019-02-27T04:09:44.384Z,57.90
2019-02-27T04:10:44.431Z,53.90
2019-02-27T04:11:44.334Z,61.10
2019-02-27T04:12:44.434Z,58.30
2019-02-27T04:13:44.320Z,58.90
2019-02-27T04:14:44.385Z,57.80
2019-02-27T04:15:44.288Z,51.20
2019-02-27T04:16:44.373Z,57.20
2019-02-27T04:17:44.274Z,55.70
2019-02-27T04:18:44.381Z,55.70
2019-02-27T04:19:44.319Z,58.50
2019-02-27T04:20:49.839Z,54.10
2019-02-27T04:21:45.221Z,58.20
2019-02-27T04:22:44.305Z,60.80
2019-02-27T04:23:47.797Z,53.30
2019-02-27T04:24:44.337Z,52.30
2019-02-27T04:25:44.221Z,54.40
2019-02-27T04:26:44.235Z,53.70
2019-02-27T04:27:44.156Z,54.30
2019-02-27T04:28:44.248Z,53.60
2019-02-27T04:29:44.136Z,55.60
2019-02-27T04:30:44.185Z,53.40
2019-02-27T04:31:44.111Z,53.00
2019-02-27T04:32:47.647Z,56.50
2019-02-27T04:33:44.094Z,49.10
2019-02-27T04:34:44.186Z,55.20
2019-02-27T04:35:44.099Z,54.10
2019-02-27T04:36:46.959Z,52.70
2019-02-27T04:37:44.050Z,53.30
2019-02-27T04:38:44.114Z,55.50
2019-02-27T04:39:44.027Z,53.30
2019-02-27T04:40:44.746Z,52.10
2019-02-27T04:41:44.034Z,51.60
2019-02-27T04:42:44.033Z,54.50
2019-02-27T04:43:43.984Z,52.20
2019-02-27T04:44:44.046Z,51.60
2019-02-27T04:45:46.749Z,53.90
2019-02-27T04:46:44.088Z,53.30
2019-02-27T04:47:43.943Z,50.70
2019-02-27T04:48:43.971Z,54.30
2019-02-27T04:49:43.929Z,52.40
2019-02-27T04:50:44.302Z,52.10
2019-02-27T04:51:43.917Z,53.00
2019-02-27T04:52:43.999Z,51.00
2019-02-27T04:53:43.877Z,50.70
2019-02-27T04:54:43.911Z,53.40
2019-02-27T04:55:43.849Z,55.30
2019-02-27T04:56:43.954Z,59.70
2019-02-27T04:57:43.829Z,54.80
2019-02-27T04:58:43.938Z,53.00
2019-02-27T04:59:43.806Z,51.20
2019-02-27T05:00:43.851Z,56.40
2019-02-27T05:01:43.833Z,50.90
2019-02-27T05:02:43.864Z,52.00
2019-02-27T05:03:43.765Z,53.80
2019-02-27T05:04:43.874Z,52.40
2019-02-27T05:05:43.743Z,53.40
2019-02-27T05:06:46.829Z,54.70
2019-02-27T05:07:43.717Z,50.60
2019-02-27T05:08:43.805Z,55.30
2019-02-27T05:09:43.695Z,56.80
2019-02-27T05:10:43.714Z,52.40
2019-02-27T05:11:47.508Z,53.20
2019-02-27T05:12:47.844Z,56.30
2019-02-27T05:13:43.677Z,54.80
2019-02-27T05:14:43.759Z,54.00
2019-02-27T05:15:43.637Z,53.10
2019-02-27T05:16:47.033Z,50.90
2019-02-27T05:17:43.641Z,55.10
2019-02-27T05:18:43.668Z,52.80
2019-02-27T05:19:43.583Z,52.80
2019-02-27T05:20:45.683Z,53.00
2019-02-27T05:21:43.569Z,55.50
2019-02-27T05:22:43.622Z,54.40
2019-02-27T05:23:43.541Z,45.90
2019-02-27T05:24:43.610Z,50.40
2019-02-27T05:25:43.525Z,51.80
2019-02-27T05:26:43.622Z,54.20
2019-02-27T05:27:43.519Z,51.50
2019-02-27T05:28:43.532Z,46.00
2019-02-27T05:29:43.474Z,47.30
2019-02-27T05:30:45.326Z,48.90
2019-02-27T05:31:43.455Z,51.70
2019-02-27T05:32:43.617Z,47.30
2019-02-27T05:33:43.433Z,51.20
2019-02-27T05:34:43.470Z,50.00
2019-02-27T05:35:43.415Z,51.90
2019-02-27T05:36:43.495Z,50.20
2019-02-27T05:37:43.415Z,54.30
2019-02-27T05:38:44.141Z,53.10
2019-02-27T05:39:43.397Z,51.10
2019-02-27T05:40:43.439Z,51.50
2019-02-27T05:41:43.340Z,50.50
2019-02-27T05:42:43.455Z,57.10
2019-02-27T05:43:47.564Z,50.20
2019-02-27T05:44:44.357Z,43.70
2019-02-27T05:45:43.295Z,52.20
2019-02-27T05:46:43.355Z,49.60
2019-02-27T05:47:45.778Z,53.00
2019-02-27T05:48:43.615Z,46.90
2019-02-27T05:49:43.265Z,50.40
2019-02-27T05:50:44.439Z,47.20
2019-02-27T05:51:43.231Z,46.70
2019-02-27T05:52:43.319Z,47.90
2019-02-27T05:53:43.241Z,48.00
2019-02-27T05:54:43.303Z,49.60
2019-02-27T05:55:43.189Z,49.90
2019-02-27T05:56:43.214Z,55.50
2019-02-27T05:57:43.164Z,52.40
2019-02-27T05:58:43.259Z,53.60
2019-02-27T05:59:43.145Z,52.30
2019-02-27T06:00:43.248Z,58.90
2019-02-27T06:01:43.142Z,63.90
2019-02-27T06:02:44.946Z,51.20
2019-02-27T06:03:43.130Z,52.50
2019-02-27T06:04:43.173Z,62.40
2019-02-27T06:05:49.444Z,56.30
2019-02-27T06:07:43.056Z,63.20
2019-02-27T06:08:43.083Z,58.60
2019-02-27T06:09:43.858Z,57.40
2019-02-27T06:10:43.030Z,59.40
2019-02-27T06:11:43.017Z,64.70
2019-02-27T06:13:45.006Z,57.60
2019-02-27T06:14:43.020Z,55.20
2019-02-27T06:15:42.976Z,54.40
2019-02-27T06:16:43.049Z,58.70
2019-02-27T06:17:43.668Z,51.80
2019-02-27T06:19:44.079Z,51.60
2019-02-27T06:20:42.974Z,59.00
2019-02-27T06:21:42.895Z,54.80
2019-02-27T06:22:45.847Z,59.10
2019-02-27T06:23:42.889Z,56.30
2019-02-27T06:24:43.110Z,54.30
2019-02-27T06:25:42.854Z,53.70
2019-02-27T06:27:43.960Z,57.40
2019-02-27T06:28:42.922Z,58.60
2019-02-27T06:29:42.834Z,53.30
2019-02-27T06:30:42.839Z,58.80
2019-02-27T06:31:42.792Z,57.70
2019-02-27T06:32:42.856Z,60.10
2019-02-27T06:33:45.103Z,67.00
2019-02-27T06:34:42.926Z,58.20
2019-02-27T06:35:42.777Z,63.40
2019-02-27T06:36:43.037Z,60.40
2019-02-27T06:37:42.727Z,59.20
2019-02-27T06:38:42.791Z,61.30
2019-02-27T06:39:42.752Z,70.30
2019-02-27T06:40:42.958Z,55.00
2019-02-27T06:41:42.678Z,60.00
2019-02-27T06:42:42.718Z,57.60
2019-02-27T06:43:42.665Z,58.80
2019-02-27T06:44:42.726Z,58.40
2019-02-27T06:45:45.378Z,63.70
2019-02-27T06:46:44.482Z,61.30
2019-02-27T06:47:42.608Z,58.40
2019-02-27T06:48:43.607Z,60.90
2019-02-27T06:49:42.585Z,56.50
2019-02-27T06:50:42.698Z,62.10
2019-02-27T06:51:42.570Z,60.20
2019-02-27T06:52:43.110Z,59.70
2019-02-27T06:53:42.547Z,53.40
2019-02-27T06:54:42.603Z,57.20
2019-02-27T06:55:42.555Z,63.50
2019-02-27T06:56:42.609Z,59.70
2019-02-27T06:57:42.502Z,50.50
2019-02-27T06:58:42.551Z,58.50
2019-02-27T06:59:42.484Z,55.00
2019-02-27T07:00:42.573Z,57.70
2019-02-27T07:01:45.132Z,56.60
2019-02-27T07:02:42.543Z,59.90
2019-02-27T07:03:42.444Z,53.60
2019-02-27T07:04:42.456Z,54.40
2019-02-27T07:05:42.414Z,52.40
2019-02-27T07:06:42.502Z,54.60
2019-02-27T07:07:42.395Z,51.90
2019-02-27T07:08:42.482Z,52.50
2019-02-27T07:09:43.226Z,48.20
2019-02-27T07:10:42.506Z,52.40
2019-02-27T07:11:45.112Z,51.10
2019-02-27T07:12:42.719Z,53.40
2019-02-27T07:13:42.349Z,51.80
2019-02-27T07:14:42.839Z,51.40
2019-02-27T07:15:47.891Z,46.50
2019-02-27T07:16:43.364Z,44.30
2019-02-27T07:17:42.281Z,44.10
2019-02-27T07:19:43.383Z,43.10
2019-02-27T07:21:43.394Z,44.90
2019-02-27T07:23:43.353Z,41.20
2019-02-27T07:25:43.325Z,45.20
2019-02-27T07:26:43.566Z,44.50
2019-02-27T07:27:42.181Z,40.90
2019-02-27T07:29:43.296Z,41.00
2019-02-27T07:31:43.309Z,40.40
2019-02-27T07:33:43.242Z,45.10
2019-02-27T07:34:43.997Z,37.80
2019-02-27T07:35:42.100Z,40.90
2019-02-27T07:36:44.153Z,40.90
2019-02-27T07:37:47.123Z,37.60
2019-02-27T07:39:43.181Z,40.70
2019-02-27T07:40:44.352Z,44.30
2019-02-27T07:41:42.028Z,41.90
2019-02-27T07:42:44.502Z,37.90
2019-02-27T07:43:42.012Z,38.40
2019-02-27T07:44:44.582Z,40.80
2019-02-27T07:45:42.807Z,41.30
2019-02-27T07:46:44.608Z,40.00
2019-02-27T07:47:41.999Z,38.60
2019-02-27T07:48:44.828Z,37.30
2019-02-27T07:49:41.963Z,34.90
2019-02-27T07:50:48.351Z,38.50
2019-02-27T07:51:41.915Z,40.60
2019-02-27T07:52:45.393Z,38.70
2019-02-27T07:53:41.910Z,36.00
2019-02-27T07:55:43.024Z,34.70
2019-02-27T07:57:43.044Z,36.20
2019-02-27T07:58:45.404Z,42.10
2019-02-27T07:59:41.844Z,37.10
2019-02-27T08:01:44.009Z,35.20
2019-02-27T08:02:45.555Z,36.40
2019-02-27T08:03:44.778Z,37.70
2019-02-27T08:04:45.437Z,41.10
2019-02-27T08:05:41.763Z,31.90
2019-02-27T08:06:46.328Z,38.10
2019-02-27T08:07:41.798Z,33.10
2019-02-27T08:08:45.600Z,34.10
2019-02-27T08:09:41.723Z,31.10
2019-02-27T08:10:45.612Z,34.50
2019-02-27T08:11:41.699Z,31.50
2019-02-27T08:12:45.723Z,31.70
2019-02-27T08:14:42.838Z,32.20
2019-02-27T08:16:41.658Z,31.30
2019-02-27T08:18:41.694Z,30.50
2019-02-27T08:19:45.319Z,34.90
2019-02-27T08:20:41.604Z,29.80
2019-02-27T08:21:43.819Z,30.50
2019-02-27T08:22:41.639Z,27.20
2019-02-27T08:23:42.334Z,31.20
2019-02-27T08:24:41.709Z,29.60
2019-02-27T08:25:41.760Z,31.20
2019-02-27T08:26:41.540Z,32.30
2019-02-27T08:27:43.811Z,31.30
2019-02-27T08:28:41.547Z,34.30
2019-02-27T08:29:41.624Z,33.40
2019-02-27T08:30:41.505Z,30.20
2019-02-27T08:31:41.528Z,34.60
2019-02-27T08:32:41.487Z,28.90
2019-02-27T08:33:41.573Z,26.90
2019-02-27T08:34:41.508Z,30.10
2019-02-27T08:35:41.597Z,27.00
2019-02-27T08:36:41.452Z,28.10
2019-02-27T08:37:41.497Z,30.60
2019-02-27T08:38:41.449Z,29.20
2019-02-27T08:39:41.500Z,27.00
2019-02-27T08:40:41.395Z,29.80
2019-02-27T08:41:41.497Z,26.00
2019-02-27T08:42:41.366Z,27.80
2019-02-27T08:43:41.977Z,24.80
2019-02-27T08:44:42.953Z,26.90
2019-02-27T08:45:41.423Z,24.80
2019-02-27T08:46:41.344Z,26.00
2019-02-27T08:47:43.406Z,26.60
2019-02-27T08:48:41.339Z,26.10
2019-02-27T08:49:41.397Z,27.20
2019-02-27T08:50:41.279Z,28.10
2019-02-27T08:51:42.164Z,25.20
2019-02-27T08:52:41.257Z,27.30
2019-02-27T08:53:41.275Z,26.60
2019-02-27T08:54:41.280Z,25.70
2019-02-27T08:55:41.300Z,29.50
2019-02-27T08:56:44.025Z,24.70
2019-02-27T08:58:42.330Z,26.10
2019-02-27T08:59:41.345Z,24.90
2019-02-27T09:00:41.172Z,25.20
2019-02-27T09:01:41.227Z,25.80
2019-02-27T09:02:41.197Z,24.70
2019-02-27T09:03:41.236Z,23.00
2019-02-27T09:04:42.904Z,22.30
2019-02-27T09:05:41.149Z,23.20
2019-02-27T09:06:41.100Z,26.30
2019-02-27T09:07:43.015Z,28.20
2019-02-27T09:08:44.090Z,24.60
2019-02-27T09:09:41.388Z,23.90
2019-02-27T09:10:41.109Z,26.60
2019-02-27T09:11:41.099Z,23.10
2019-02-27T09:12:41.037Z,24.50
2019-02-27T09:13:41.113Z,23.20
2019-02-27T09:14:41.061Z,23.20
2019-02-27T09:15:41.766Z,24.80
2019-02-27T09:16:40.991Z,24.10
2019-02-27T09:17:41.049Z,24.20
2019-02-27T09:18:40.976Z,20.80
2019-02-27T09:19:45.279Z,23.40
2019-02-27T09:20:41.975Z,22.00
2019-02-27T09:21:41.128Z,19.90
2019-02-27T09:22:40.964Z,20.60
2019-02-27T09:23:41.009Z,20.90
2019-02-27T09:24:40.915Z,22.00
2019-02-27T09:25:42.347Z,19.60
2019-02-27T09:26:42.364Z,19.70
2019-02-27T09:27:40.993Z,23.50
2019-02-27T09:28:44.203Z,22.30
2019-02-27T09:29:40.905Z,20.40
2019-02-27T09:30:40.871Z,22.00
2019-02-27T09:31:50.490Z,20.10
2019-02-27T09:32:43.250Z,21.20
2019-02-27T09:33:40.934Z,22.50
2019-02-27T09:34:40.803Z,20.00
2019-02-27T09:35:40.878Z,23.30
2019-02-27T09:36:42.999Z,24.10
2019-02-27T09:37:40.861Z,23.10
2019-02-27T09:38:40.761Z,22.60
2019-02-27T09:39:40.784Z,22.70
2019-02-27T09:40:40.769Z,17.70
2019-02-27T09:41:46.065Z,17.80
2019-02-27T09:42:41.713Z,18.50
2019-02-27T09:43:40.804Z,22.40
2019-02-27T09:44:40.691Z,19.00
2019-02-27T09:45:40.755Z,19.60
2019-02-27T09:46:40.671Z,14.70
2019-02-27T09:47:40.730Z,20.10
2019-02-27T09:48:40.650Z,20.80
2019-02-27T09:49:41.524Z,23.70
2019-02-27T09:50:40.659Z,19.00
2019-02-27T09:51:41.705Z,21.70
2019-02-27T09:52:40.600Z,27.80
2019-02-27T09:53:40.665Z,20.50
2019-02-27T09:54:40.585Z,22.90
2019-02-27T09:56:41.716Z,25.30
2019-02-27T09:57:40.591Z,26.20
2019-02-27T09:58:45.109Z,21.40
2019-02-27T09:59:40.600Z,27.10
2019-02-27T10:00:40.518Z,24.90
2019-02-27T10:01:40.648Z,20.10
2019-02-27T10:02:43.152Z,18.90
2019-02-27T10:03:41.554Z,18.10
2019-02-27T10:04:40.470Z,16.00
2019-02-27T10:05:40.925Z,20.90
2019-02-27T10:06:42.770Z,17.60
2019-02-27T10:07:40.590Z,17.20
2019-02-27T10:08:40.424Z,18.10
2019-02-27T10:09:40.487Z,18.20
2019-02-27T10:10:44.775Z,16.00
2019-02-27T10:11:41.503Z,18.00
2019-02-27T10:12:42.269Z,16.40
2019-02-27T10:13:40.494Z,16.00
2019-02-27T10:15:41.351Z,18.80
2019-02-27T10:16:40.416Z,17.30
2019-02-27T10:17:41.073Z,15.90
2019-02-27T10:18:40.430Z,14.60
2019-02-27T10:19:40.307Z,18.70
2019-02-27T10:20:40.342Z,15.80
2019-02-27T10:21:41.317Z,15.20
2019-02-27T10:22:40.385Z,16.50
2019-02-27T10:23:40.301Z,16.70
2019-02-27T10:24:40.370Z,15.40
2019-02-27T10:25:43.188Z,16.50
2019-02-27T10:26:40.280Z,15.00
2019-02-27T10:27:40.215Z,14.80
2019-02-27T10:28:40.326Z,13.70
2019-02-27T10:29:40.197Z,14.60
2019-02-27T10:30:40.309Z,11.30
2019-02-27T10:31:40.184Z,15.30
2019-02-27T10:32:40.225Z,15.40
2019-02-27T10:33:43.005Z,15.80
2019-02-27T10:34:40.244Z,28.60
2019-02-27T10:35:40.134Z,21.40
2019-02-27T10:36:40.254Z,18.60
2019-02-27T10:37:40.158Z,19.50
2019-02-27T10:38:40.613Z,17.30
2019-02-27T10:39:40.093Z,15.10
2019-02-27T10:40:40.169Z,13.10
2019-02-27T10:41:40.067Z,15.10
2019-02-27T10:42:40.089Z,14.30
2019-02-27T10:43:40.088Z,14.60
2019-02-27T10:44:40.097Z,13.20
2019-02-27T10:45:42.098Z,13.70
2019-02-27T10:46:40.113Z,14.30
2019-02-27T10:47:40.042Z,15.30
2019-02-27T10:48:40.057Z,27.50
2019-02-27T10:49:39.983Z,19.90
2019-02-27T10:50:40.036Z,15.50
2019-02-27T10:51:41.515Z,16.90
2019-02-27T10:52:40.063Z,15.20
2019-02-27T10:53:39.962Z,18.00
2019-02-27T10:54:40.009Z,12.30
2019-02-27T10:55:39.926Z,13.30
2019-02-27T10:56:39.974Z,13.90
2019-02-27T10:57:39.899Z,15.00
2019-02-27T10:58:39.988Z,16.00
2019-02-27T10:59:39.900Z,14.20
2019-02-27T11:00:39.901Z,12.00
2019-02-27T11:01:39.851Z,13.50
2019-02-27T11:02:39.921Z,14.00
2019-02-27T11:03:39.857Z,16.70
2019-02-27T11:04:39.978Z,15.70
2019-02-27T11:05:39.808Z,14.10
2019-02-27T11:06:39.839Z,14.60
2019-02-27T11:07:39.791Z,14.30
2019-02-27T11:08:39.859Z,14.90
2019-02-27T11:09:41.282Z,14.60
2019-02-27T11:10:39.867Z,15.30
2019-02-27T11:11:39.740Z,12.70
2019-02-27T11:12:39.804Z,13.40
2019-02-27T11:13:39.717Z,15.80
2019-02-27T11:14:39.831Z,14.50
2019-02-27T11:15:41.421Z,13.50
2019-02-27T11:16:39.817Z,14.40
2019-02-27T11:17:39.677Z,15.60
2019-02-27T11:18:39.723Z,16.50
2019-02-27T11:19:39.653Z,14.70
2019-02-27T11:20:39.770Z,15.00
2019-02-27T11:21:39.634Z,14.30
2019-02-27T11:22:39.646Z,12.90
2019-02-27T11:23:41.119Z,18.90
2019-02-27T11:24:39.673Z,20.70
2019-02-27T11:25:39.618Z,17.50
2019-02-27T11:26:39.678Z,14.40
2019-02-27T11:27:39.734Z,17.00
2019-02-27T11:28:39.592Z,20.00
2019-02-27T11:29:39.627Z,15.80
2019-02-27T11:30:39.636Z,19.50
2019-02-27T11:31:39.571Z,20.30
2019-02-27T11:32:39.616Z,13.70
2019-02-27T11:33:39.512Z,18.00
2019-02-27T11:34:39.529Z,12.50
2019-02-27T11:35:39.517Z,16.10
2019-02-27T11:36:39.663Z,17.20
2019-02-27T11:37:39.485Z,14.80
2019-02-27T11:38:39.561Z,13.90
2019-02-27T11:39:39.436Z,14.00
2019-02-27T11:40:42.668Z,13.00
2019-02-27T11:41:39.414Z,16.20
2019-02-27T11:42:39.479Z,15.10
2019-02-27T11:43:40.853Z,16.30
2019-02-27T11:44:39.583Z,19.40
2019-02-27T11:45:39.431Z,18.60
2019-02-27T11:46:39.402Z,17.20
2019-02-27T11:47:45.122Z,15.50
2019-02-27T11:48:40.332Z,18.90
2019-02-27T11:49:39.448Z,16.50
2019-02-27T11:50:39.319Z,17.70
2019-02-27T11:51:39.366Z,18.50
2019-02-27T11:52:48.276Z,16.00
2019-02-27T11:53:40.280Z,16.70
2019-02-27T11:54:43.002Z,20.40
2019-02-27T11:55:39.261Z,22.70
2019-02-27T11:56:39.298Z,13.90
2019-02-27T11:57:39.237Z,20.30
2019-02-27T11:58:39.277Z,15.60
2019-02-27T11:59:39.215Z,16.00
2019-02-27T12:00:39.296Z,15.70
2019-02-27T12:01:39.214Z,15.20
2019-02-27T12:02:39.308Z,16.70
2019-02-27T12:03:39.176Z,15.00
2019-02-27T12:04:39.222Z,15.70
2019-02-27T12:05:39.153Z,16.00
2019-02-27T12:06:41.670Z,13.70
2019-02-27T12:07:39.130Z,15.00
2019-02-27T12:08:39.144Z,17.20
2019-02-27T12:09:39.107Z,17.30
2019-02-27T12:10:39.157Z,18.90
2019-02-27T12:11:39.110Z,19.60
2019-02-27T12:12:39.175Z,17.00
2019-02-27T12:13:39.066Z,15.80
2019-02-27T12:14:39.197Z,16.70
2019-02-27T12:15:43.406Z,18.70
2019-02-27T12:16:40.157Z,17.00
2019-02-27T12:17:39.019Z,15.70
2019-02-27T12:18:39.114Z,16.60
2019-02-27T12:19:42.428Z,22.40
2019-02-27T12:20:39.047Z,21.60
2019-02-27T12:21:38.998Z,18.20
2019-02-27T12:22:39.035Z,19.60
2019-02-27T12:23:41.230Z,20.00
2019-02-27T12:24:39.968Z,18.70
2019-02-27T12:25:38.946Z,16.70
2019-02-27T12:26:38.966Z,17.00
2019-02-27T12:27:49.260Z,18.50
2019-02-27T12:28:39.946Z,16.10
2019-02-27T12:29:38.999Z,28.80
2019-02-27T12:30:38.881Z,26.30
2019-02-27T12:31:38.893Z,20.20
2019-02-27T12:32:38.883Z,18.20
2019-02-27T12:33:38.943Z,19.30
2019-02-27T12:34:38.832Z,16.90
2019-02-27T12:35:38.922Z,17.20
2019-02-27T12:36:38.823Z,20.30
2019-02-27T12:37:38.868Z,17.30
2019-02-27T12:38:39.314Z,19.40
2019-02-27T12:39:38.847Z,18.30
2019-02-27T12:40:38.772Z,21.60
2019-02-27T12:41:38.862Z,16.80
2019-02-27T12:42:42.498Z,17.60
2019-02-27T12:43:38.802Z,16.40
2019-02-27T12:44:38.727Z,20.40
2019-02-27T12:45:38.793Z,19.10
2019-02-27T12:46:38.708Z,17.30
2019-02-27T12:47:40.720Z,17.70
2019-02-27T12:48:38.706Z,16.40
2019-02-27T12:49:38.748Z,16.20
2019-02-27T12:50:38.660Z,22.70
2019-02-27T12:51:39.055Z,20.60
2019-02-27T12:52:38.654Z,18.80
2019-02-27T12:54:39.743Z,14.60
2019-02-27T12:55:38.654Z,24.50
2019-02-27T12:56:41.554Z,27.90
2019-02-27T12:57:39.692Z,20.70
2019-02-27T12:58:38.595Z,20.50
2019-02-27T12:59:38.683Z,18.50
2019-02-27T13:00:39.908Z,15.90
2019-02-27T13:01:38.593Z,14.50
2019-02-27T13:02:38.526Z,17.40
2019-02-27T13:03:42.238Z,14.00
2019-02-27T13:04:38.514Z,17.40
2019-02-27T13:05:38.622Z,13.30
2019-02-27T13:06:38.486Z,16.40
2019-02-27T13:07:38.545Z,14.40
2019-02-27T13:08:38.498Z,14.90
2019-02-27T13:09:38.681Z,14.90
2019-02-27T13:10:38.446Z,14.90
2019-02-27T13:11:39.050Z,17.00
2019-02-27T13:12:38.427Z,15.90
2019-02-27T13:13:38.471Z,19.70
2019-02-27T13:14:38.439Z,27.10
2019-02-27T13:15:40.990Z,23.90